sensor_id;sensor_type;location;lat;lon;timestamp;pressure;altitude;pressure_sealevel;temperature
12430;BMP280;6279;42.192;24.326;2023-06-14T00:00:13;98701.16;;;20.24
12430;BMP280;6279;42.192;24.326;2023-06-14T00:02:40;98690.59;;;20.24
12430;BMP280;6279;42.192;24.326;2023-06-14T00:05:06;98694.38;;;20.28
12430;BMP280;6279;42.192;24.326;2023-06-14T00:07:36;98688.47;;;20.38
12430;BMP280;6279;42.192;24.326;2023-06-14T00:10:02;98687.34;;;20.45
12430;BMP280;6279;42.192;24.326;2023-06-14T00:12:29;98683.09;;;20.44
12430;BMP280;6279;42.192;24.326;2023-06-14T00:14:55;98677.69;;;20.39
12430;BMP280;6279;42.192;24.326;2023-06-14T00:17:20;98680.22;;;20.34
12430;BMP280;6279;42.192;24.326;2023-06-14T00:19:46;98681.75;;;20.30
12430;BMP280;6279;42.192;24.326;2023-06-14T00:22:11;98684.38;;;20.30
12430;BMP280;6279;42.192;24.326;2023-06-14T00:24:37;98685.75;;;20.33
12430;BMP280;6279;42.192;24.326;2023-06-14T00:27:02;98678.63;;;20.33
12430;BMP280;6279;42.192;24.326;2023-06-14T00:29:28;98680.03;;;20.24
12430;BMP280;6279;42.192;24.326;2023-06-14T00:31:53;98686.72;;;20.16
12430;BMP280;6279;42.192;24.326;2023-06-14T00:34:19;98688.22;;;20.12
12430;BMP280;6279;42.192;24.326;2023-06-14T00:36:44;98676.53;;;20.08
12430;BMP280;6279;42.192;24.326;2023-06-14T00:39:09;98683.97;;;20.11
12430;BMP280;6279;42.192;24.326;2023-06-14T00:41:35;98671.34;;;20.13
12430;BMP280;6279;42.192;24.326;2023-06-14T00:44:01;98682.00;;;20.18
12430;BMP280;6279;42.192;24.326;2023-06-14T00:46:26;98671.44;;;20.18
12430;BMP280;6279;42.192;24.326;2023-06-14T00:48:52;98672.00;;;20.20
12430;BMP280;6279;42.192;24.326;2023-06-14T00:51:17;98671.44;;;20.18
12430;BMP280;6279;42.192;24.326;2023-06-14T00:53:43;98670.06;;;20.15
12430;BMP280;6279;42.192;24.326;2023-06-14T00:56:12;98663.09;;;20.09
12430;BMP280;6279;42.192;24.326;2023-06-14T00:58:39;98668.72;;;20.01
12430;BMP280;6279;42.192;24.326;2023-06-14T01:01:04;98667.59;;;19.98
12430;BMP280;6279;42.192;24.326;2023-06-14T01:03:29;98668.41;;;19.98
12430;BMP280;6279;42.192;24.326;2023-06-14T01:06:23;98674.16;;;19.95
12430;BMP280;6279;42.192;24.326;2023-06-14T01:11:40;98670.25;;;19.98
12430;BMP280;6279;42.192;24.326;2023-06-14T01:14:07;98659.09;;;20.07
12430;BMP280;6279;42.192;24.326;2023-06-14T01:16:33;98671.34;;;20.13
12430;BMP280;6279;42.192;24.326;2023-06-14T01:19:01;98663.44;;;20.13
12430;BMP280;6279;42.192;24.326;2023-06-14T01:21:27;98663.19;;;20.14
12430;BMP280;6279;42.192;24.326;2023-06-14T01:23:53;98663.88;;;20.21
12430;BMP280;6279;42.192;24.326;2023-06-14T01:26:23;98666.63;;;20.15
12430;BMP280;6279;42.192;24.326;2023-06-14T01:28:50;98670.53;;;20.23
12430;BMP280;6279;42.192;24.326;2023-06-14T01:31:19;98671.81;;;20.21
12430;BMP280;6279;42.192;24.326;2023-06-14T01:33:48;98667.06;;;20.23
12430;BMP280;6279;42.192;24.326;2023-06-14T01:36:15;98669.97;;;20.21
12430;BMP280;6279;42.192;24.326;2023-06-14T01:38:42;98669.81;;;20.28
12430;BMP280;6279;42.192;24.326;2023-06-14T01:41:09;98664.94;;;20.36
12430;BMP280;6279;42.192;24.326;2023-06-14T01:43:35;98665.31;;;20.28
12430;BMP280;6279;42.192;24.326;2023-06-14T01:46:02;98660.53;;;20.25
12430;BMP280;6279;42.192;24.326;2023-06-14T01:48:28;98668.84;;;20.34
12430;BMP280;6279;42.192;24.326;2023-06-14T01:50:53;98662.22;;;20.31
12430;BMP280;6279;42.192;24.326;2023-06-14T01:53:19;98660.13;;;20.33
12430;BMP280;6279;42.192;24.326;2023-06-14T01:55:44;98664.84;;;20.31
12430;BMP280;6279;42.192;24.326;2023-06-14T01:58:14;98661.41;;;20.31
12430;BMP280;6279;42.192;24.326;2023-06-14T02:00:41;98657.31;;;20.23
12430;BMP280;6279;42.192;24.326;2023-06-14T02:03:08;98663.88;;;20.21
12430;BMP280;6279;42.192;24.326;2023-06-14T02:05:34;98662.94;;;20.27
12430;BMP280;6279;42.192;24.326;2023-06-14T02:08:00;98665.00;;;20.25
12430;BMP280;6279;42.192;24.326;2023-06-14T02:10:25;98669.47;;;20.24
12430;BMP280;6279;42.192;24.326;2023-06-14T02:12:51;98664.75;;;20.26
12430;BMP280;6279;42.192;24.326;2023-06-14T02:15:16;98675.88;;;20.28
12430;BMP280;6279;42.192;24.326;2023-06-14T02:17:46;98668.78;;;20.29
12430;BMP280;6279;42.192;24.326;2023-06-14T02:20:15;98663.88;;;20.21
12430;BMP280;6279;42.192;24.326;2023-06-14T02:22:41;98665.91;;;20.19
12430;BMP280;6279;42.192;24.326;2023-06-14T02:25:07;98674.63;;;20.20
12430;BMP280;6279;42.192;24.326;2023-06-14T02:27:34;98664.88;;;20.20
12430;BMP280;6279;42.192;24.326;2023-06-14T02:30:00;98666.59;;;20.26
12430;BMP280;6279;42.192;24.326;2023-06-14T02:32:26;98675.56;;;20.25
12430;BMP280;6279;42.192;24.326;2023-06-14T02:34:54;98676.97;;;20.16
12430;BMP280;6279;42.192;24.326;2023-06-14T02:37:20;98684.84;;;20.27
12430;BMP280;6279;42.192;24.326;2023-06-14T02:39:45;98675.25;;;20.38
12430;BMP280;6279;42.192;24.326;2023-06-14T02:42:11;98684.47;;;20.35
12430;BMP280;6279;42.192;24.326;2023-06-14T02:44:36;98687.22;;;20.40
12430;BMP280;6279;42.192;24.326;2023-06-14T02:47:02;98688.03;;;20.41
12430;BMP280;6279;42.192;24.326;2023-06-14T02:49:28;98688.22;;;20.23
12430;BMP280;6279;42.192;24.326;2023-06-14T02:51:53;98692.56;;;20.18
12430;BMP280;6279;42.192;24.326;2023-06-14T02:54:18;98685.91;;;20.26
12430;BMP280;6279;42.192;24.326;2023-06-14T02:56:44;98692.63;;;20.34
12430;BMP280;6279;42.192;24.326;2023-06-14T02:59:10;98693.91;;;20.43
12430;BMP280;6279;42.192;24.326;2023-06-14T03:01:35;98694.22;;;20.46
12430;BMP280;6279;42.192;24.326;2023-06-14T03:04:06;98701.63;;;20.60
12430;BMP280;6279;42.192;24.326;2023-06-14T03:06:32;98705.09;;;20.61
12430;BMP280;6279;42.192;24.326;2023-06-14T03:08:58;98701.69;;;20.49
12430;BMP280;6279;42.192;24.326;2023-06-14T03:11:29;98704.09;;;20.39
12430;BMP280;6279;42.192;24.326;2023-06-14T03:13:55;98706.50;;;20.41
12430;BMP280;6279;42.192;24.326;2023-06-14T03:16:21;98702.03;;;20.41
12430;BMP280;6279;42.192;24.326;2023-06-14T03:18:50;98708.13;;;20.42
12430;BMP280;6279;42.192;24.326;2023-06-14T03:21:15;98707.91;;;20.43
12430;BMP280;6279;42.192;24.326;2023-06-14T03:23:42;98704.69;;;20.41
12430;BMP280;6279;42.192;24.326;2023-06-14T03:26:07;98707.66;;;20.33
12430;BMP280;6279;42.192;24.326;2023-06-14T03:28:33;98711.81;;;20.29
12430;BMP280;6279;42.192;24.326;2023-06-14T03:30:58;98713.75;;;20.34
12430;BMP280;6279;42.192;24.326;2023-06-14T03:33:24;98720.41;;;20.36
12430;BMP280;6279;42.192;24.326;2023-06-14T03:35:50;98713.63;;;20.40
12430;BMP280;6279;42.192;24.326;2023-06-14T03:38:16;98714.69;;;20.39
12430;BMP280;6279;42.192;24.326;2023-06-14T03:40:41;98711.34;;;20.43
12430;BMP280;6279;42.192;24.326;2023-06-14T03:43:07;98718.09;;;20.51
12430;BMP280;6279;42.192;24.326;2023-06-14T03:45:32;98725.19;;;20.62
12430;BMP280;6279;42.192;24.326;2023-06-14T03:47:57;98727.88;;;20.78
12430;BMP280;6279;42.192;24.326;2023-06-14T03:50:23;98725.88;;;21.01
12430;BMP280;6279;42.192;24.326;2023-06-14T03:52:49;98728.25;;;21.13
12430;BMP280;6279;42.192;24.326;2023-06-14T03:55:15;98724.41;;;21.37
12430;BMP280;6279;42.192;24.326;2023-06-14T03:57:41;98724.81;;;21.45
12430;BMP280;6279;42.192;24.326;2023-06-14T04:00:08;98723.38;;;21.54
12430;BMP280;6279;42.192;24.326;2023-06-14T04:02:34;98727.59;;;21.71
12430;BMP280;6279;42.192;24.326;2023-06-14T04:05:02;98734.88;;;21.80
12430;BMP280;6279;42.192;24.326;2023-06-14T04:07:28;98724.38;;;21.85
12430;BMP280;6279;42.192;24.326;2023-06-14T04:09:54;98733.25;;;21.79
12430;BMP280;6279;42.192;24.326;2023-06-14T04:12:19;98727.09;;;21.74
12430;BMP280;6279;42.192;24.326;2023-06-14T04:14:45;98731.66;;;21.78
12430;BMP280;6279;42.192;24.326;2023-06-14T04:17:11;98727.66;;;21.76
12430;BMP280;6279;42.192;24.326;2023-06-14T04:19:36;98735.03;;;21.74
12430;BMP280;6279;42.192;24.326;2023-06-14T04:22:02;98729.13;;;21.67
12430;BMP280;6279;42.192;24.326;2023-06-14T04:24:28;98730.56;;;21.58
12430;BMP280;6279;42.192;24.326;2023-06-14T04:26:58;98725.84;;;21.44
12430;BMP280;6279;42.192;24.326;2023-06-14T04:29:24;98732.66;;;21.40
12430;BMP280;6279;42.192;24.326;2023-06-14T04:31:49;98736.25;;;21.18
12430;BMP280;6279;42.192;24.326;2023-06-14T04:34:16;98737.63;;;21.21
12430;BMP280;6279;42.192;24.326;2023-06-14T04:36:42;98753.81;;;21.24
12430;BMP280;6279;42.192;24.326;2023-06-14T04:39:15;98740.13;;;21.27
12430;BMP280;6279;42.192;24.326;2023-06-14T04:41:40;98737.88;;;21.35
12430;BMP280;6279;42.192;24.326;2023-06-14T04:44:06;98745.66;;;21.42
12430;BMP280;6279;42.192;24.326;2023-06-14T04:46:32;98749.91;;;21.43
12430;BMP280;6279;42.192;24.326;2023-06-14T04:48:58;98757.22;;;21.36
12430;BMP280;6279;42.192;24.326;2023-06-14T04:51:27;98745.03;;;21.35
12430;BMP280;6279;42.192;24.326;2023-06-14T04:53:58;98752.09;;;21.46
12430;BMP280;6279;42.192;24.326;2023-06-14T04:56:24;98749.09;;;21.58
12430;BMP280;6279;42.192;24.326;2023-06-14T04:58:50;98751.78;;;21.79
12430;BMP280;6279;42.192;24.326;2023-06-14T05:01:15;98755.00;;;21.98
12430;BMP280;6279;42.192;24.326;2023-06-14T05:03:41;98750.84;;;22.22
12430;BMP280;6279;42.192;24.326;2023-06-14T05:06:06;98758.69;;;22.55
12430;BMP280;6279;42.192;24.326;2023-06-14T05:08:32;98751.78;;;22.75
12430;BMP280;6279;42.192;24.326;2023-06-14T05:10:57;98758.19;;;22.79
12430;BMP280;6279;42.192;24.326;2023-06-14T05:13:22;98765.34;;;23.04
12430;BMP280;6279;42.192;24.326;2023-06-14T05:15:48;98770.78;;;23.19
12430;BMP280;6279;42.192;24.326;2023-06-14T05:18:14;98765.78;;;23.22
12430;BMP280;6279;42.192;24.326;2023-06-14T05:20:40;98771.97;;;23.32
12430;BMP280;6279;42.192;24.326;2023-06-14T05:23:07;98767.38;;;23.49
12430;BMP280;6279;42.192;24.326;2023-06-14T05:25:32;98778.78;;;23.80
12430;BMP280;6279;42.192;24.326;2023-06-14T05:27:57;98780.91;;;24.14
12430;BMP280;6279;42.192;24.326;2023-06-14T05:30:23;98783.13;;;24.37
12430;BMP280;6279;42.192;24.326;2023-06-14T05:32:48;98785.06;;;24.51
12430;BMP280;6279;42.192;24.326;2023-06-14T05:35:14;98791.03;;;24.77
12430;BMP280;6279;42.192;24.326;2023-06-14T05:37:39;98784.75;;;25.12
12430;BMP280;6279;42.192;24.326;2023-06-14T05:40:06;98790.88;;;25.32
12430;BMP280;6279;42.192;24.326;2023-06-14T05:42:32;98787.47;;;25.52
12430;BMP280;6279;42.192;24.326;2023-06-14T05:44:58;98784.81;;;25.71
12430;BMP280;6279;42.192;24.326;2023-06-14T05:47:23;98791.75;;;25.77
12430;BMP280;6279;42.192;24.326;2023-06-14T05:49:49;98796.28;;;25.62
12430;BMP280;6279;42.192;24.326;2023-06-14T05:52:14;98803.44;;;25.71
12430;BMP280;6279;42.192;24.326;2023-06-14T05:54:40;98795.19;;;25.53
12430;BMP280;6279;42.192;24.326;2023-06-14T05:57:06;98795.47;;;25.61
12430;BMP280;6279;42.192;24.326;2023-06-14T05:59:32;98797.06;;;25.48
12430;BMP280;6279;42.192;24.326;2023-06-14T06:01:57;98797.09;;;25.57
12430;BMP280;6279;42.192;24.326;2023-06-14T06:04:23;98796.81;;;25.64
12430;BMP280;6279;42.192;24.326;2023-06-14T06:06:48;98794.38;;;25.72
12430;BMP280;6279;42.192;24.326;2023-06-14T06:09:14;98796.53;;;25.95
12430;BMP280;6279;42.192;24.326;2023-06-14T06:11:40;98794.88;;;26.23
12430;BMP280;6279;42.192;24.326;2023-06-14T06:14:06;98799.97;;;26.19
12430;BMP280;6279;42.192;24.326;2023-06-14T06:16:31;98796.69;;;26.47
12430;BMP280;6279;42.192;24.326;2023-06-14T06:18:57;98793.91;;;26.76
12430;BMP280;6279;42.192;24.326;2023-06-14T06:21:22;98793.47;;;27.12
12430;BMP280;6279;42.192;24.326;2023-06-14T06:23:47;98792.78;;;27.39
12430;BMP280;6279;42.192;24.326;2023-06-14T06:26:13;98796.09;;;27.59
12430;BMP280;6279;42.192;24.326;2023-06-14T06:28:38;98801.88;;;27.76
12430;BMP280;6279;42.192;24.326;2023-06-14T06:31:04;98790.38;;;28.03
12430;BMP280;6279;42.192;24.326;2023-06-14T06:33:30;98806.22;;;28.23
12430;BMP280;6279;42.192;24.326;2023-06-14T06:35:55;98808.16;;;28.86
12430;BMP280;6279;42.192;24.326;2023-06-14T06:38:21;98797.09;;;29.16
12430;BMP280;6279;42.192;24.326;2023-06-14T06:40:46;98794.53;;;29.24
12430;BMP280;6279;42.192;24.326;2023-06-14T06:43:12;98804.88;;;28.94
12430;BMP280;6279;42.192;24.326;2023-06-14T06:45:42;98804.38;;;29.10
12430;BMP280;6279;42.192;24.326;2023-06-14T06:48:07;98801.13;;;29.50
12430;BMP280;6279;42.192;24.326;2023-06-14T06:50:35;98806.72;;;29.71
12430;BMP280;6279;42.192;24.326;2023-06-14T06:53:01;98809.81;;;29.78
12430;BMP280;6279;42.192;24.326;2023-06-14T06:55:26;98807.28;;;29.32
12430;BMP280;6279;42.192;24.326;2023-06-14T06:57:51;98809.31;;;29.04
12430;BMP280;6279;42.192;24.326;2023-06-14T07:00:19;98818.78;;;29.14
12430;BMP280;6279;42.192;24.326;2023-06-14T07:02:45;98806.63;;;29.04
12430;BMP280;6279;42.192;24.326;2023-06-14T07:05:11;98811.34;;;29.11
12430;BMP280;6279;42.192;24.326;2023-06-14T07:07:36;98806.13;;;29.02
12430;BMP280;6279;42.192;24.326;2023-06-14T07:10:03;98803.63;;;28.41
12430;BMP280;6279;42.192;24.326;2023-06-14T07:12:32;98807.91;;;28.42
12430;BMP280;6279;42.192;24.326;2023-06-14T07:14:59;98803.34;;;28.42
12430;BMP280;6279;42.192;24.326;2023-06-14T07:17:25;98802.84;;;28.40
12430;BMP280;6279;42.192;24.326;2023-06-14T07:19:51;98802.41;;;28.29
12430;BMP280;6279;42.192;24.326;2023-06-14T07:22:16;98797.34;;;27.34
12430;BMP280;6279;42.192;24.326;2023-06-14T07:24:42;98800.53;;;27.41
12430;BMP280;6279;42.192;24.326;2023-06-14T07:27:08;98794.09;;;27.79
12430;BMP280;6279;42.192;24.326;2023-06-14T07:29:33;98791.69;;;28.06
12430;BMP280;6279;42.192;24.326;2023-06-14T07:31:59;98795.13;;;28.62
12430;BMP280;6279;42.192;24.326;2023-06-14T07:34:24;98796.75;;;28.58
12430;BMP280;6279;42.192;24.326;2023-06-14T07:36:50;98805.75;;;29.08
12430;BMP280;6279;42.192;24.326;2023-06-14T07:39:16;98804.53;;;29.01
12430;BMP280;6279;42.192;24.326;2023-06-14T07:41:42;98807.34;;;29.27
12430;BMP280;6279;42.192;24.326;2023-06-14T07:44:07;98807.31;;;29.68
12430;BMP280;6279;42.192;24.326;2023-06-14T07:46:32;98807.75;;;28.80
12430;BMP280;6279;42.192;24.326;2023-06-14T07:48:59;98809.72;;;28.69
12430;BMP280;6279;42.192;24.326;2023-06-14T07:51:25;98798.97;;;28.51
12430;BMP280;6279;42.192;24.326;2023-06-14T07:53:50;98805.66;;;27.98
12430;BMP280;6279;42.192;24.326;2023-06-14T07:56:16;98802.00;;;27.89
12430;BMP280;6279;42.192;24.326;2023-06-14T07:58:41;98797.19;;;27.91
12430;BMP280;6279;42.192;24.326;2023-06-14T08:01:06;98800.41;;;28.16
12430;BMP280;6279;42.192;24.326;2023-06-14T08:03:33;98813.88;;;28.80
12430;BMP280;6279;42.192;24.326;2023-06-14T08:05:58;98806.66;;;29.58
12430;BMP280;6279;42.192;24.326;2023-06-14T08:08:24;98811.31;;;30.60
12430;BMP280;6279;42.192;24.326;2023-06-14T08:10:49;98828.78;;;31.10
12430;BMP280;6279;42.192;24.326;2023-06-14T08:13:15;98828.34;;;31.29
12430;BMP280;6279;42.192;24.326;2023-06-14T08:15:40;98826.41;;;31.78
12430;BMP280;6279;42.192;24.326;2023-06-14T08:18:06;98829.88;;;31.57
12430;BMP280;6279;42.192;24.326;2023-06-14T08:20:31;98832.88;;;31.42
12430;BMP280;6279;42.192;24.326;2023-06-14T08:22:57;98834.38;;;31.48
12430;BMP280;6279;42.192;24.326;2023-06-14T08:25:23;98832.38;;;31.40
12430;BMP280;6279;42.192;24.326;2023-06-14T08:27:48;98826.84;;;31.72
12430;BMP280;6279;42.192;24.326;2023-06-14T08:30:15;98828.47;;;31.59
12430;BMP280;6279;42.192;24.326;2023-06-14T08:32:42;98835.66;;;32.07
12430;BMP280;6279;42.192;24.326;2023-06-14T08:35:07;98830.94;;;32.42
12430;BMP280;6279;42.192;24.326;2023-06-14T08:37:38;98830.66;;;32.90
12430;BMP280;6279;42.192;24.326;2023-06-14T08:40:08;98840.94;;;33.43
12430;BMP280;6279;42.192;24.326;2023-06-14T08:42:38;98831.09;;;34.13
12430;BMP280;6279;42.192;24.326;2023-06-14T08:45:04;98838.03;;;34.47
12430;BMP280;6279;42.192;24.326;2023-06-14T08:47:29;98834.84;;;34.54
12430;BMP280;6279;42.192;24.326;2023-06-14T08:50:02;98833.84;;;34.05
12430;BMP280;6279;42.192;24.326;2023-06-14T08:52:33;98835.25;;;34.11
12430;BMP280;6279;42.192;24.326;2023-06-14T08:55:06;98829.22;;;33.72
12430;BMP280;6279;42.192;24.326;2023-06-14T08:57:32;98819.38;;;33.26
12430;BMP280;6279;42.192;24.326;2023-06-14T08:59:59;98821.16;;;33.80
12430;BMP280;6279;42.192;24.326;2023-06-14T09:02:26;98814.84;;;34.30
12430;BMP280;6279;42.192;24.326;2023-06-14T09:04:52;98821.94;;;35.84
12430;BMP280;6279;42.192;24.326;2023-06-14T09:07:17;98818.03;;;35.73
12430;BMP280;6279;42.192;24.326;2023-06-14T09:09:43;98818.06;;;35.05
12430;BMP280;6279;42.192;24.326;2023-06-14T09:12:10;98811.16;;;33.64
12430;BMP280;6279;42.192;24.326;2023-06-14T09:14:36;98804.69;;;32.94
12430;BMP280;6279;42.192;24.326;2023-06-14T09:17:04;98811.41;;;32.66
12430;BMP280;6279;42.192;24.326;2023-06-14T09:19:30;98806.59;;;31.18
12430;BMP280;6279;42.192;24.326;2023-06-14T09:21:55;98799.56;;;31.65
12430;BMP280;6279;42.192;24.326;2023-06-14T09:24:21;98797.50;;;31.83
12430;BMP280;6279;42.192;24.326;2023-06-14T09:26:50;98799.50;;;32.21
12430;BMP280;6279;42.192;24.326;2023-06-14T09:29:16;98808.19;;;31.40
12430;BMP280;6279;42.192;24.326;2023-06-14T09:31:42;98804.66;;;31.31
12430;BMP280;6279;42.192;24.326;2023-06-14T09:34:08;98802.53;;;32.58
12430;BMP280;6279;42.192;24.326;2023-06-14T09:36:34;98798.66;;;35.03
12430;BMP280;6279;42.192;24.326;2023-06-14T09:39:03;98797.66;;;36.51
12430;BMP280;6279;42.192;24.326;2023-06-14T09:41:33;98785.53;;;34.85
12430;BMP280;6279;42.192;24.326;2023-06-14T09:44:00;98785.66;;;34.97
12430;BMP280;6279;42.192;24.326;2023-06-14T09:46:29;98785.94;;;36.16
12430;BMP280;6279;42.192;24.326;2023-06-14T09:48:58;98775.84;;;37.07
12430;BMP280;6279;42.192;24.326;2023-06-14T09:51:24;98767.56;;;38.49
12430;BMP280;6279;42.192;24.326;2023-06-14T09:53:52;98775.81;;;41.23
12430;BMP280;6279;42.192;24.326;2023-06-14T09:56:22;98768.78;;;43.64
12430;BMP280;6279;42.192;24.326;2023-06-14T09:58:53;98773.59;;;43.17
12430;BMP280;6279;42.192;24.326;2023-06-14T10:01:20;98776.59;;;43.69
12430;BMP280;6279;42.192;24.326;2023-06-14T10:03:46;98781.75;;;42.61
12430;BMP280;6279;42.192;24.326;2023-06-14T10:06:14;98771.50;;;41.80
12430;BMP280;6279;42.192;24.326;2023-06-14T10:08:40;98767.63;;;39.88
12430;BMP280;6279;42.192;24.326;2023-06-14T10:11:05;98768.84;;;36.82
12430;BMP280;6279;42.192;24.326;2023-06-14T10:13:32;98765.69;;;34.08
12430;BMP280;6279;42.192;24.326;2023-06-14T10:16:09;98757.34;;;33.43
12430;BMP280;6279;42.192;24.326;2023-06-14T10:21:41;98752.59;;;33.48
12430;BMP280;6279;42.192;24.326;2023-06-14T10:24:10;98744.56;;;32.00
12430;BMP280;6279;42.192;24.326;2023-06-14T10:26:50;98751.22;;;30.42
12430;BMP280;6279;42.192;24.326;2023-06-14T10:29:16;98748.78;;;30.01
12430;BMP280;6279;42.192;24.326;2023-06-14T10:34:32;98735.50;;;30.76
12430;BMP280;6279;42.192;24.326;2023-06-14T10:37:04;98733.19;;;31.52
12430;BMP280;6279;42.192;24.326;2023-06-14T10:39:30;98729.66;;;32.71
12430;BMP280;6279;42.192;24.326;2023-06-14T10:41:56;98731.56;;;34.77
12430;BMP280;6279;42.192;24.326;2023-06-14T10:47:09;98719.28;;;34.14
12430;BMP280;6279;42.192;24.326;2023-06-14T10:49:43;98719.44;;;33.48
12430;BMP280;6279;42.192;24.326;2023-06-14T10:52:13;98710.38;;;34.22
12430;BMP280;6279;42.192;24.326;2023-06-14T10:57:53;98706.28;;;36.28
12430;BMP280;6279;42.192;24.326;2023-06-14T11:00:23;98713.69;;;36.08
12430;BMP280;6279;42.192;24.326;2023-06-14T11:10:59;98710.31;;;34.67
12430;BMP280;6279;42.192;24.326;2023-06-14T11:13:26;98698.81;;;33.02
12430;BMP280;6279;42.192;24.326;2023-06-14T11:15:51;98700.09;;;32.33
12430;BMP280;6279;42.192;24.326;2023-06-14T11:18:19;98689.31;;;31.95
12430;BMP280;6279;42.192;24.326;2023-06-14T11:20:49;98700.03;;;32.54
12430;BMP280;6279;42.192;24.326;2023-06-14T11:23:14;98697.03;;;32.56
12430;BMP280;6279;42.192;24.326;2023-06-14T11:25:40;98695.28;;;32.13
12430;BMP280;6279;42.192;24.326;2023-06-14T11:28:05;98697.38;;;31.22
12430;BMP280;6279;42.192;24.326;2023-06-14T11:30:30;98699.00;;;30.75
12430;BMP280;6279;42.192;24.326;2023-06-14T11:32:57;98693.19;;;30.07
12430;BMP280;6279;42.192;24.326;2023-06-14T11:35:22;98691.81;;;30.22
12430;BMP280;6279;42.192;24.326;2023-06-14T11:37:49;98688.59;;;30.34
12430;BMP280;6279;42.192;24.326;2023-06-14T11:40:15;98668.06;;;31.33
12430;BMP280;6279;42.192;24.326;2023-06-14T11:42:41;98665.06;;;31.86
12430;BMP280;6279;42.192;24.326;2023-06-14T11:45:11;98672.41;;;32.40
12430;BMP280;6279;42.192;24.326;2023-06-14T11:47:38;98681.81;;;32.60
12430;BMP280;6279;42.192;24.326;2023-06-14T11:50:06;98680.44;;;31.64
12430;BMP280;6279;42.192;24.326;2023-06-14T11:52:32;98669.25;;;30.71
12430;BMP280;6279;42.192;24.326;2023-06-14T11:54:58;98674.78;;;30.14
12430;BMP280;6279;42.192;24.326;2023-06-14T11:57:24;98668.75;;;30.08
12430;BMP280;6279;42.192;24.326;2023-06-14T11:59:50;98664.31;;;30.39
12430;BMP280;6279;42.192;24.326;2023-06-14T12:02:16;98662.63;;;30.69
12430;BMP280;6279;42.192;24.326;2023-06-14T12:04:49;98659.31;;;31.07
12430;BMP280;6279;42.192;24.326;2023-06-14T12:07:15;98662.88;;;31.37
12430;BMP280;6279;42.192;24.326;2023-06-14T12:12:28;98649.34;;;31.28
12430;BMP280;6279;42.192;24.326;2023-06-14T12:14:57;98663.94;;;30.32
12430;BMP280;6279;42.192;24.326;2023-06-14T12:17:23;98648.38;;;30.07
12430;BMP280;6279;42.192;24.326;2023-06-14T12:19:49;98650.00;;;29.51
12430;BMP280;6279;42.192;24.326;2023-06-14T12:22:15;98636.72;;;29.41
12430;BMP280;6279;42.192;24.326;2023-06-14T12:24:44;98637.78;;;29.84
12430;BMP280;6279;42.192;24.326;2023-06-14T12:27:10;98638.50;;;30.29
12430;BMP280;6279;42.192;24.326;2023-06-14T12:29:41;98632.38;;;30.77
12430;BMP280;6279;42.192;24.326;2023-06-14T12:32:10;98626.63;;;31.94
12430;BMP280;6279;42.192;24.326;2023-06-14T12:34:35;98621.56;;;32.47
12430;BMP280;6279;42.192;24.326;2023-06-14T12:37:01;98634.41;;;32.42
12430;BMP280;6279;42.192;24.326;2023-06-14T12:39:29;98637.13;;;30.80
12430;BMP280;6279;42.192;24.326;2023-06-14T12:41:57;98627.94;;;30.59
12430;BMP280;6279;42.192;24.326;2023-06-14T12:44:22;98627.19;;;29.93
12430;BMP280;6279;42.192;24.326;2023-06-14T12:46:48;98621.56;;;28.87
12430;BMP280;6279;42.192;24.326;2023-06-14T12:49:13;98624.25;;;28.69
12430;BMP280;6279;42.192;24.326;2023-06-14T12:51:39;98617.56;;;28.30
12430;BMP280;6279;42.192;24.326;2023-06-14T12:54:05;98620.28;;;28.66
12430;BMP280;6279;42.192;24.326;2023-06-14T12:56:30;98615.50;;;29.00
12430;BMP280;6279;42.192;24.326;2023-06-14T12:58:56;98608.97;;;29.06
12430;BMP280;6279;42.192;24.326;2023-06-14T13:01:21;98609.50;;;29.65
12430;BMP280;6279;42.192;24.326;2023-06-14T13:03:47;98614.88;;;29.92
12430;BMP280;6279;42.192;24.326;2023-06-14T13:06:13;98621.75;;;29.97
12430;BMP280;6279;42.192;24.326;2023-06-14T13:08:38;98601.47;;;29.92
12430;BMP280;6279;42.192;24.326;2023-06-14T13:11:04;98605.44;;;29.23
12430;BMP280;6279;42.192;24.326;2023-06-14T13:13:29;98599.94;;;28.84
12430;BMP280;6279;42.192;24.326;2023-06-14T13:15:54;98598.63;;;28.27
12430;BMP280;6279;42.192;24.326;2023-06-14T13:18:20;98589.22;;;27.88
12430;BMP280;6279;42.192;24.326;2023-06-14T13:20:46;98586.03;;;27.86
12430;BMP280;6279;42.192;24.326;2023-06-14T13:23:12;98582.41;;;28.00
12430;BMP280;6279;42.192;24.326;2023-06-14T13:25:37;98579.53;;;28.15
12430;BMP280;6279;42.192;24.326;2023-06-14T13:28:04;98581.81;;;28.03
12430;BMP280;6279;42.192;24.326;2023-06-14T13:30:30;98579.53;;;28.15
12430;BMP280;6279;42.192;24.326;2023-06-14T13:32:56;98569.28;;;28.58
12430;BMP280;6279;42.192;24.326;2023-06-14T13:35:23;98567.59;;;28.80
12430;BMP280;6279;42.192;24.326;2023-06-14T13:37:48;98565.34;;;28.87
12430;BMP280;6279;42.192;24.326;2023-06-14T13:40:13;98571.22;;;29.20
12430;BMP280;6279;42.192;24.326;2023-06-14T13:42:39;98570.66;;;29.50
12430;BMP280;6279;42.192;24.326;2023-06-14T13:45:05;98574.94;;;29.77
12430;BMP280;6279;42.192;24.326;2023-06-14T13:47:31;98575.34;;;29.57
12430;BMP280;6279;42.192;24.326;2023-06-14T13:49:57;98569.41;;;29.16
12430;BMP280;6279;42.192;24.326;2023-06-14T13:52:22;98567.50;;;29.48
12430;BMP280;6279;42.192;24.326;2023-06-14T13:54:48;98570.19;;;29.74
12430;BMP280;6279;42.192;24.326;2023-06-14T13:57:14;98569.69;;;29.72
12430;BMP280;6279;42.192;24.326;2023-06-14T13:59:40;98563.31;;;29.81
12430;BMP280;6279;42.192;24.326;2023-06-14T14:02:06;98570.22;;;29.29
12430;BMP280;6279;42.192;24.326;2023-06-14T14:04:33;98571.63;;;28.96
12430;BMP280;6279;42.192;24.326;2023-06-14T14:06:59;98577.44;;;28.84
12430;BMP280;6279;42.192;24.326;2023-06-14T14:09:25;98571.63;;;28.96
12430;BMP280;6279;42.192;24.326;2023-06-14T14:11:50;98571.88;;;29.12
12430;BMP280;6279;42.192;24.326;2023-06-14T14:14:15;98585.41;;;28.71
12430;BMP280;6279;42.192;24.326;2023-06-14T14:16:41;98590.66;;;28.45
12430;BMP280;6279;42.192;24.326;2023-06-14T14:19:06;98579.44;;;28.43
12430;BMP280;6279;42.192;24.326;2023-06-14T14:21:32;98586.78;;;28.51
12430;BMP280;6279;42.192;24.326;2023-06-14T14:23:58;98573.69;;;28.67
12430;BMP280;6279;42.192;24.326;2023-06-14T14:26:23;98572.97;;;28.62
12430;BMP280;6279;42.192;24.326;2023-06-14T14:28:50;98569.44;;;28.66